createdAt,value
2023-03-26T00:01:15.772Z,8.33
2023-03-26T00:06:27.707Z,8.70
2023-03-26T00:11:48.188Z,8.87
2023-03-26T00:17:16.045Z,8.83
2023-03-26T00:22:29.806Z,8.20
2023-03-26T00:27:45.633Z,8.33
2023-03-26T00:33:13.821Z,8.47
2023-03-26T00:38:41.761Z,8.40
2023-03-26T00:43:51.520Z,8.40
2023-03-26T00:48:59.852Z,7.47
2023-03-26T00:54:14.223Z,7.80
2023-03-26T00:59:24.590Z,6.90
2023-03-26T01:04:37.743Z,6.17
2023-03-26T01:09:52.802Z,5.97
2023-03-26T01:15:02.666Z,5.80
2023-03-26T01:20:18.130Z,5.40
2023-03-26T01:25:34.753Z,5.10
2023-03-26T01:30:45.011Z,5.00
2023-03-26T01:36:03.091Z,4.83
2023-03-26T01:41:44.896Z,5.00
2023-03-26T01:46:51.763Z,5.77
2023-03-26T01:52:03.644Z,5.10
2023-03-26T01:57:41.139Z,4.90
2023-03-26T02:03:36.572Z,4.83
2023-03-26T02:09:00.862Z,5.13
2023-03-26T02:14:37.533Z,4.63
2023-03-26T02:20:13.154Z,4.17
2023-03-26T02:25:24.605Z,3.87
2023-03-26T02:30:34.450Z,3.53
2023-03-26T02:35:55.033Z,3.20
2023-03-26T02:41:11.269Z,3.10
2023-03-26T02:46:43.702Z,2.70
2023-03-26T02:52:10.184Z,2.40
2023-03-26T02:57:23.444Z,2.43
2023-03-26T03:02:49.729Z,2.53
2023-03-26T03:08:20.910Z,2.60
2023-03-26T03:14:00.104Z,2.80
2023-03-26T03:24:46.322Z,2.60
2023-03-26T03:29:50.016Z,2.30
2023-03-26T03:35:24.085Z,2.80
2023-03-26T03:40:32.390Z,2.80
2023-03-26T03:45:36.348Z,3.00
2023-03-26T03:51:19.720Z,3.33
2023-03-26T03:56:26.358Z,3.23
2023-03-26T04:01:52.940Z,3.47
2023-03-26T04:07:17.999Z,3.43
2023-03-26T04:12:44.266Z,3.57
2023-03-26T04:17:52.479Z,4.00
2023-03-26T04:22:58.552Z,4.07
2023-03-26T04:28:08.703Z,5.07
2023-03-26T04:33:25.097Z,4.43
2023-03-26T04:38:35.713Z,4.70
2023-03-26T04:43:47.559Z,4.47
2023-03-26T04:49:09.465Z,4.90
2023-03-26T04:54:15.636Z,5.17
2023-03-26T04:59:35.093Z,5.60
2023-03-26T05:04:43.985Z,5.20
2023-03-26T05:09:49.874Z,5.13
2023-03-26T05:14:59.073Z,5.07
2023-03-26T05:20:34.801Z,5.20
2023-03-26T05:25:42.435Z,6.23
2023-03-26T05:30:54.436Z,6.30
2023-03-26T05:36:04.218Z,4.73
2023-03-26T05:41:11.660Z,5.47
2023-03-26T05:46:20.465Z,4.90
2023-03-26T05:51:24.920Z,5.27
2023-03-26T05:56:48.774Z,5.90
2023-03-26T06:02:11.322Z,5.30
2023-03-26T06:07:16.859Z,5.67
2023-03-26T06:12:27.592Z,5.60
2023-03-26T06:17:31.175Z,5.73
2023-03-26T06:22:41.683Z,5.27
2023-03-26T06:28:18.698Z,4.53
2023-03-26T06:33:40.794Z,4.40
2023-03-26T06:38:45.829Z,4.43
2023-03-26T06:43:50.879Z,4.40
2023-03-26T06:49:30.057Z,4.40
2023-03-26T06:54:56.200Z,4.63
2023-03-26T07:00:20.424Z,4.80
2023-03-26T07:05:44.459Z,7.00
2023-03-26T07:11:07.170Z,7.30
2023-03-26T07:16:49.953Z,7.90
2023-03-26T07:22:20.428Z,9.10
2023-03-26T07:28:04.294Z,9.30
2023-03-26T07:33:30.634Z,8.87
2023-03-26T07:39:11.351Z,7.40
2023-03-26T07:44:47.408Z,6.57
2023-03-26T07:50:26.446Z,7.47
2023-03-26T07:55:40.326Z,6.90
2023-03-26T08:01:20.605Z,6.20
2023-03-26T08:06:32.988Z,4.83
2023-03-26T08:11:55.703Z,7.23
2023-03-26T08:17:05.188Z,5.30
2023-03-26T08:22:15.557Z,4.03
2023-03-26T08:27:25.408Z,5.70
2023-03-26T08:32:29.223Z,6.30
2023-03-26T08:37:34.156Z,4.80
2023-03-26T08:43:02.586Z,5.00
2023-03-26T08:48:49.880Z,6.07
2023-03-26T08:54:21.335Z,6.13
2023-03-26T09:00:11.269Z,5.87
2023-03-26T09:05:47.192Z,4.80
2023-03-26T09:11:29.156Z,4.37
2023-03-26T09:17:03.863Z,4.23
2023-03-26T09:22:55.100Z,4.20
2023-03-26T09:28:22.570Z,4.37
2023-03-26T09:33:52.250Z,3.67
2023-03-26T09:39:05.417Z,3.50
2023-03-26T09:44:36.752Z,3.60
2023-03-26T09:49:52.905Z,4.03
2023-03-26T09:55:15.602Z,3.50
2023-03-26T10:00:30.395Z,4.10
2023-03-26T10:05:49.895Z,3.43
2023-03-26T10:10:59.516Z,3.40
2023-03-26T10:16:16.248Z,3.07
2023-03-26T10:21:30.805Z,2.20
2023-03-26T10:27:10.025Z,2.30
2023-03-26T10:32:24.274Z,1.37
2023-03-26T10:37:39.969Z,1.00
2023-03-26T10:42:56.917Z,0.90
2023-03-26T10:48:23.081Z,1.60
2023-03-26T10:53:36.070Z,1.10
2023-03-26T10:58:48.562Z,0.70
2023-03-26T11:03:57.079Z,0.60
2023-03-26T11:09:12.375Z,0.93
2023-03-26T11:14:33.691Z,0.60
2023-03-26T11:19:45.538Z,0.60
2023-03-26T11:25:13.241Z,0.80
2023-03-26T11:30:31.042Z,0.80
2023-03-26T11:35:40.730Z,0.60
2023-03-26T11:40:51.135Z,0.60
2023-03-26T11:46:19.371Z,0.67
2023-03-26T11:51:31.499Z,0.60
2023-03-26T11:56:39.094Z,0.60
2023-03-26T12:01:50.454Z,0.70
2023-03-26T12:06:59.748Z,0.60
2023-03-26T12:12:06.118Z,0.60
2023-03-26T12:17:16.313Z,0.63
2023-03-26T12:22:36.299Z,0.70
2023-03-26T12:27:44.838Z,0.77
2023-03-26T12:32:53.327Z,0.97
2023-03-26T12:38:17.118Z,0.90
2023-03-26T12:44:48.827Z,0.73
2023-03-26T12:48:56.957Z,1.00
2023-03-26T12:54:29.019Z,1.00
2023-03-26T12:59:47.688Z,0.90
2023-03-26T13:05:09.700Z,1.00
2023-03-26T13:10:37.265Z,0.93
2023-03-26T13:15:49.111Z,0.77
2023-03-26T13:21:03.249Z,1.10
2023-03-26T13:26:22.264Z,1.10
2023-03-26T13:31:35.262Z,0.83
2023-03-26T13:36:48.814Z,0.80
2023-03-26T13:42:09.962Z,1.00
2023-03-26T13:47:18.279Z,0.80
2023-03-26T13:52:26.364Z,0.90
2023-03-26T13:57:35.818Z,0.80
2023-03-26T14:02:42.100Z,0.90
2023-03-26T14:07:52.497Z,0.80
2023-03-26T14:13:01.263Z,0.93
2023-03-26T14:18:14.651Z,0.70
2023-03-26T14:23:34.820Z,0.80
2023-03-26T14:29:09.702Z,1.03
2023-03-26T14:34:38.970Z,0.80
2023-03-26T14:40:15.134Z,0.87
2023-03-26T14:45:59.437Z,0.90
2023-03-26T14:51:24.643Z,1.00
2023-03-26T14:56:59.716Z,0.67
2023-03-26T15:02:47.711Z,0.90
2023-03-26T15:08:20.299Z,0.80
2023-03-26T15:13:51.072Z,0.80
2023-03-26T15:19:19.216Z,0.70
2023-03-26T15:25:03.057Z,0.77
2023-03-26T15:30:56.099Z,0.90
2023-03-26T15:36:26.541Z,0.80
2023-03-26T15:41:35.036Z,0.80
2023-03-26T15:47:00.304Z,0.70
2023-03-26T15:52:23.110Z,1.03
2023-03-26T15:57:33.553Z,0.90
2023-03-26T16:02:51.836Z,0.90
2023-03-26T16:08:15.403Z,0.87
2023-03-26T16:13:33.691Z,1.13
2023-03-26T16:18:42.386Z,1.00
2023-03-26T16:23:58.361Z,1.20
2023-03-26T16:29:22.454Z,2.20
2023-03-26T16:34:38.912Z,2.30
2023-03-26T16:39:46.921Z,1.77
2023-03-26T16:45:05.663Z,4.40
2023-03-26T16:50:25.083Z,3.27
2023-03-26T16:55:43.924Z,2.97
2023-03-26T17:01:06.936Z,3.27
2023-03-26T17:06:38.404Z,3.73
2023-03-26T17:11:59.350Z,4.10
2023-03-26T17:17:21.980Z,2.97
2023-03-26T17:22:40.733Z,3.97
2023-03-26T17:28:23.875Z,1.50
2023-03-26T17:33:34.917Z,1.03
2023-03-26T17:39:18.327Z,1.00
2023-03-26T17:44:47.743Z,1.00
2023-03-26T17:49:56.569Z,0.90
2023-03-26T17:55:28.520Z,0.90
2023-03-26T18:00:45.661Z,1.20
2023-03-26T18:05:55.859Z,1.77
2023-03-26T18:11:28.901Z,1.70
2023-03-26T18:16:41.343Z,2.17
2023-03-26T18:21:55.048Z,2.90
2023-03-26T18:27:06.682Z,2.60
2023-03-26T18:32:23.926Z,2.00
2023-03-26T18:37:32.167Z,1.70
2023-03-26T18:42:41.137Z,1.97
2023-03-26T18:48:03.409Z,1.60
2023-03-26T18:53:15.382Z,1.80
2023-03-26T18:58:28.076Z,2.27
2023-03-26T19:03:38.904Z,2.47
2023-03-26T19:08:45.197Z,1.77
2023-03-26T19:14:03.523Z,2.20
2023-03-26T19:19:09.793Z,2.03
2023-03-26T19:24:16.534Z,2.13
2023-03-26T19:29:26.477Z,1.90
2023-03-26T19:34:37.516Z,2.60
2023-03-26T19:39:44.517Z,2.40
2023-03-26T19:44:50.496Z,2.27
2023-03-26T19:49:59.374Z,2.47
2023-03-26T19:55:07.009Z,2.63
2023-03-26T20:00:15.223Z,2.80
2023-03-26T20:05:27.096Z,2.90
2023-03-26T20:10:31.678Z,2.50
2023-03-26T20:15:38.928Z,2.30
2023-03-26T20:20:46.190Z,2.63
2023-03-26T20:25:55.188Z,2.33
2023-03-26T20:31:00.389Z,2.67
2023-03-26T20:36:08.607Z,2.50
2023-03-26T20:41:16.424Z,2.77
2023-03-26T20:46:23.913Z,2.60
2023-03-26T20:51:38.273Z,2.70
2023-03-26T20:56:43.510Z,2.47
2023-03-26T21:01:49.133Z,2.90
2023-03-26T21:07:03.239Z,3.07
2023-03-26T21:12:24.230Z,3.10
2023-03-26T21:17:30.125Z,3.00
2023-03-26T21:22:41.301Z,2.60
2023-03-26T21:27:52.852Z,2.77
2023-03-26T21:32:58.181Z,2.70
2023-03-26T21:38:06.922Z,2.67
2023-03-26T21:43:14.925Z,3.00
2023-03-26T21:48:20.691Z,2.97
2023-03-26T21:53:29.042Z,2.90
2023-03-26T21:58:47.260Z,3.30
2023-03-26T22:04:07.147Z,2.70
2023-03-26T22:09:26.361Z,2.70
2023-03-26T22:14:39.999Z,2.53
2023-03-26T22:19:46.088Z,2.70
2023-03-26T22:24:52.555Z,3.27
2023-03-26T22:29:57.249Z,3.03
2023-03-26T22:35:02.009Z,3.10
2023-03-26T22:40:14.114Z,2.93
2023-03-26T22:45:18.261Z,5.50
2023-03-26T22:50:22.309Z,3.93
2023-03-26T22:55:30.925Z,4.03
2023-03-26T23:00:36.440Z,5.73
2023-03-26T23:05:45.746Z,4.30
2023-03-26T23:10:54.134Z,3.60
2023-03-26T23:15:58.937Z,4.20
2023-03-26T23:21:03.330Z,4.50
2023-03-26T23:26:10.114Z,4.30
2023-03-26T23:31:14.586Z,4.20
2023-03-26T23:36:23.948Z,4.33
2023-03-26T23:41:31.663Z,4.30
2023-03-26T23:46:38.337Z,4.67
2023-03-26T23:51:44.228Z,4.17
2023-03-26T23:56:51.885Z,4.33
